• Join FlightAware (Why Join?)
  • Login
  • US Flag 
05:57AM EDT


 

Airport Tracker/Info


-or-


 

Live Flight TrackerFlight Track Log ✈ UAL4849 ✈ 12-Apr-2013 ✈ KROC - KEWR

Flight Track Log - Related Links

Times and Time Zones

All times are in EDT time to prevent confusion due to time zone crossing. See the UAL4849 flight status page for this flight to view local times or setup timezone preferences in your user account.

Time Position Orientation Groundspeed Altitude Reporting Facility
EDT Latitude Longitude Course Direction KTS MPH feet Rate Location/Type
10:49AM 43.1036 -77.6914 213° Southwest 151 174 1,000  Level Cleveland Center
10:49AM 43.0872 -77.7061 213° Southwest 138 159 2,000 1,680 Climbing Cleveland Center
10:50AM 43.0494 -77.6908 164° South 111 128 3,700 1,320 Climbing Cleveland Center
10:51AM 43.0281 -77.6722 148° Southeast 113 130 4,400 720 Climbing Cleveland Center
10:52AM 43.0036 -77.6192 122° Southeast 208 239 5,000 300 Climbing Cleveland Center
10:53AM 42.9831 -77.5408 110° East 249 287 5,000 180 Level Cleveland Center
10:54AM 42.9575 -77.4511 111° Southeast 260 299 5,400 900 Climbing Cleveland Center
10:55AM 42.9322 -77.3644 112° Southeast 255 293 6,900 1,320 Climbing Cleveland Center
10:56AM 42.9092 -77.2864 112° Southeast 241 277 8,100 1,200 Climbing Cleveland Center
10:57AM 42.8839 -77.2056 113° Southeast 230 265 9,300 1,140 Climbing Cleveland Center
10:58AM 42.8608 -77.1247 111° Southeast 230 265 10,400 1,140 Climbing Cleveland Center
11:00AM 42.8200 -76.9897 112° Southeast 230 265 12,400 1,080 Climbing Boston Center
11:01AM 42.7917 -76.9197 119° Southeast 235 270 13,400 900 Climbing Boston Center
11:02AM 42.7569 -76.8436 122° Southeast 235 270 14,300 780 Climbing Boston Center
11:03AM 42.7225 -76.7678 122° Southeast 235 270 15,000 300 Climbing Boston Center
11:04AM 42.6858 -76.6831 120° Southeast 241 277 15,000  Level Boston Center
11:05AM 42.6475 -76.5958 121° Southeast 259 298 15,000  Level Boston Center
11:06AM 42.6069 -76.5056 121° Southeast 271 312 15,000  Level Boston Center
11:07AM 42.5664 -76.4156 121° Southeast 278 320 15,000  Level Boston Center
11:08AM 42.5236 -76.3253 123° Southeast 278 320 15,000  Level Boston Center
11:09AM 42.4811 -76.2242 120° Southeast 283 326 15,000  Level Boston Center
11:10AM 42.4403 -76.1317 121° Southeast 283 326 15,000  Level Boston Center
11:11AM 42.3956 -76.0389 123° Southeast 290 334 15,000  Level Boston Center
11:12AM 42.3583 -75.9553 121° Southeast 276 318 15,000  Level Boston Center
11:13AM 42.3175 -75.8658 122° Southeast 281 323 15,000  Level Boston Center
11:14AM 42.2783 -75.7797 122° Southeast 281 323 15,000  Level Boston Center
11:15AM 42.2372 -75.6875 121° Southeast 287 330 15,000  Level Boston Center
11:16AM 42.1939 -75.5956 122° Southeast 287 330 15,000  Level Boston Center
11:17AM 42.1525 -75.5067 122° Southeast 287 330 15,000  Level Boston Center
11:18AM 42.1111 -75.4153 121° Southeast 287 330 15,100  Climbing Boston Center
11:19AM 42.0678 -75.3236 122° Southeast 287 330 15,100 -60 Level Boston Center
11:20AM 42.0306 -75.2269 117° Southeast 287 330 15,000 -60 Descending Boston Center
11:21AM 41.9914 -75.1217 117° Southeast 287 330 15,000  Level Boston Center
11:22AM 41.9561 -75.0281 117° Southeast 287 330 15,000 -240 Level Boston Center
11:23AM 41.9186 -74.9317 118° Southeast 287 330 14,600 -960 Descending Boston Center
11:24AM 41.8792 -74.8325 118° Southeast 287 330 13,200 -1,560 Descending Boston Center
11:25AM 41.8417 -74.7308 116° Southeast 293 337 11,600 -1,440 Descending Boston Center
11:26AM 41.8039 -74.6347 118° Southeast 288 331 10,300 -1,440 Descending Boston Center
11:27AM 41.7597 -74.5469 124° Southeast 282 325 8,800 -1,440 Descending Boston Center
11:28AM 41.6953 -74.5419 177° South 223 257 7,500 -960 Descending Boston Center
11:29AM 41.6408 -74.5514 187° South 204 235 6,900 -780 Descending Boston Center
11:30AM 41.5989 -74.5583 187° South 173 199 6,000 -480 Descending Boston Center
11:31AM 41.5531 -74.5650 186° South 165 190 6,000  Level Boston Center
11:32AM 41.5050 -74.5744 188° South 165 190 6,000  Level Boston Center
11:34AM 41.4000 -74.6000 190° South 173 199 6,000  Level New York TRACON
11:35AM 41.3500 -74.6167 194° South 178 205 6,000  Level New York TRACON
11:36AM 41.3000 -74.6167 180° South 192 221 6,000  Level New York TRACON
11:37AM 41.2500 -74.5667 143° Southeast 205 236 6,000  Level New York TRACON
11:38AM 41.2000 -74.5333 153° Southeast 205 236 6,100  Climbing New York TRACON
11:39AM 41.1500 -74.5000 153° Southeast 199 229 6,000 -60 Descending New York TRACON
11:40AM 41.1000 -74.4833 166° South 199 229 6,000 -60 Level New York TRACON
11:41AM 41.0500 -74.4667 166° South 197 227 5,900 -480 Descending New York TRACON
11:42AM 40.9833 -74.4667 180° South 198 228 5,100 -480 Descending New York TRACON
11:43AM 40.9333 -74.4500 166° South 179 206 5,000 -60 Descending New York TRACON
11:44AM 40.9000 -74.4667 201° Southwest 170 196 5,000  Level New York TRACON
11:45AM 40.8667 -74.5333 237° Southwest 177 204 5,000  Level New York TRACON
11:46AM 40.8167 -74.5500 194° South 179 206 5,000  Level New York TRACON
11:47AM 40.7667 -74.5667 194° South 210 242 5,000  Level New York TRACON
11:48AM 40.7167 -74.5667 180° South 218 251 5,000 -60 Level New York TRACON
11:49AM 40.6500 -74.5667 180° South 218 251 4,900 -60 Descending New York TRACON
11:50AM 40.5833 -74.5667 180° South 219 252 4,900 -300 Level New York TRACON
11:51AM 40.5333 -74.5333 153° Southeast 242 278 4,300 -900 Descending New York TRACON
11:52AM 40.4833 -74.4667 135° Southeast 220 253 3,100 -1,140 Descending New York TRACON
11:53AM 40.4333 -74.4333 153° Southeast 186 214 2,000 -600 Descending New York TRACON
11:54AM 40.4333 -74.3833 90° East 176 203 1,900  Descending New York TRACON
11:55AM 40.4500 -74.3333 66° East 171 197 2,000  Climbing New York TRACON
11:56AM 40.4833 -74.3000 37° Northeast 162 186 1,900 -60 Descending New York TRACON
11:57AM 40.5333 -74.2667 27° Northeast 167 192 1,900  Level New York TRACON
11:58AM 40.5667 -74.2333 37° Northeast 165 190 1,900 -120 Level New York TRACON
11:59AM 40.6000 -74.2167 21° North 160 184 1,700 -300 Descending New York TRACON